Tümü
Flugplatz Schwabmünchen Airport EDNS Hava Durumu
There is no TAF data available at EDNS. Showing TAF data for EDMA (20 mi KD).
AGB Terminal Alanı Tahmini (EDNS için veri yok)
| Date | Time (CEST) | Flight Rules | Wind Dir. | Speed | Type | Height AGL (ft) | Visibility | Remarks | ||||||
|---|---|---|---|---|---|---|---|---|---|---|---|---|---|---|
| 09-May | 22:00 | VFR | 100° | 5 kt | Few | 3.500 | >= 6 miles | |||||||
| 09-May | 21:00 | VFR | 100° | 5 kt | Few | 3.500 | >= 6 miles | |||||||
| 09-May | 20:00 | VFR | 100° | 5 kt | Few | 3.500 | >= 6 miles | |||||||
| 09-May | 19:00 | VFR | 100° | 5 kt | Few | 3.500 | >= 6 miles | |||||||
| 09-May | 18:00 | VFR | 100° | 5 kt | Few | 3.500 | >= 6 miles | |||||||
| 09-May | 17:00 | VFR | 100° | 5 kt | Few | 3.500 | >= 6 miles | |||||||
| 09-May | 16:00 | VFR | 100° | 5 kt | Few | 3.500 | >= 6 miles | |||||||
| 09-May | 15:00 | VFR | 100° | 5 kt | Few | 3.500 | >= 6 miles | |||||||
There is no METAR data available at EDNS. Showing METAR data for ETSL (7 mi D).
Yakın zamandaki ETSL METAR geçmişi (EDNS verisi yok)
| Date | Time (CEST) | Flight Rules | Wind Dir. | Speed | Type | Height AGL (ft) | Visibility | Temp (°C) | Temp (°F) | Dew Point (°C) | Dew Point (°F) | Rel. Humid. | Pressure | Density Altitude | Remarks |
|---|---|---|---|---|---|---|---|---|---|---|---|---|---|---|---|
| 09-May | 15:20 | VFR | 80° | 9 kt | 10000 meters | 21° | 69° | 6° | 42° | 38% | 1016 mb | 2.697 ft | |||
| 09-May | 14:20 | VFR | 140° | 7 kt | 10000 meters | 20° | 68° | 7° | 44° | 43% | 1016 mb | 2.577 ft | |||
| 09-May | 13:20 | VFR | 60° | 5 kt | 10000 meters | 18° | 64° | 7° | 44° | 49% | 1017 mb | 2.308 ft | |||
| 09-May | 12:20 | VFR | 190° | 4 kt | 10000 meters | 19° | 66° | 7° | 44° | 46% | 1017 mb | 2.428 ft | |||
| 09-May | 11:20 | VFR | 40° | 3 kt | 10000 meters | 18° | 64° | 7° | 44° | 49% | 1018 mb | 2.278 ft | |||
| 09-May | 10:20 | VFR | 100° | 2 kt | 10000 meters | 17° | 62° | 9° | 48° | 59% | 1017 mb | 2.188 ft | |||
| 09-May | 09:20 | VFR | 200° | 5 kt | 10000 meters | 15° | 59° | 8° | 46° | 63% | 1018 mb | 1.918 ft | |||
| 09-May | 08:20 | VFR | 60° | 3 kt | 10000 meters | 10° | 50° | 6° | 42° | 76% | 1018 mb | 1.318 ft | |||
| 09-May | 07:20 | VFR | Variable | 2 kt | 10000 meters | 8° | 46° | 6° | 42° | 87% | 1018 mb | 1.078 ft | |||
| 09-May | 06:20 | VFR | 110° | 2 kt | 10000 meters | 8° | 46° | 5° | 41° | 81% | 1017 mb | 1.108 ft | |||
| 09-May | 05:20 | VFR | 20° | 2 kt | 10000 meters | 8° | 46° | 5° | 41° | 81% | 1017 mb | 1.108 ft | |||
| 09-May | 04:20 | VFR | Calm | 10000 meters | 8° | 46° | 5° | 41° | 81% | 1017 mb | 1.108 ft | ||||
| 09-May | 03:20 | VFR | Calm | 10000 meters | 8° | 46° | 5° | 41° | 81% | 1017 mb | 1.108 ft | ||||
| 09-May | 02:20 | VFR | 10° | 1 kt | 10000 meters | 8° | 46° | 5° | 41° | 81% | 1017 mb | 1.108 ft | |||
| 09-May | 01:20 | VFR | 20° | 2 kt | 10000 meters | 10° | 50° | 5° | 41° | 71% | 1017 mb | 1.348 ft | |||
| 09-May | 00:20 | VFR | 50° | 2 kt | 10000 meters | 8° | 46° | 5° | 41° | 81% | 1017 mb | 1.108 ft | |||
| 08-May | 23:20 | VFR | 70° | 2 kt | 10000 meters | 9° | 48° | 5° | 41° | 76% | 1017 mb | 1.228 ft | |||
| 08-May | 22:20 | VFR | 50° | 4 kt | 10000 meters | 12° | 53° | 5° | 41° | 62% | 1017 mb | 1.588 ft | |||
| 08-May | 21:20 | VFR | 60° | 6 kt | 10000 meters | 12° | 53° | 5° | 41° | 62% | 1016 mb | 1.617 ft | |||
| 08-May | 20:20 | VFR | 60° | 6 kt | 10000 meters | 14° | 57° | 6° | 42° | 58% | 1015 mb | 1.887 ft | |||
| 08-May | 19:20 | VFR | 80° | 8 kt | 10000 meters | 17° | 62° | 6° | 42° | 48% | 1015 mb | 2.247 ft | |||
| 08-May | 18:20 | VFR | 90° | 6 kt | 10000 meters | 18° | 64° | 5° | 41° | 42% | 1015 mb | 2.367 ft | |||
| 08-May | 17:20 | VFR | 70° | 6 kt | 10000 meters | 18° | 64° | 5° | 41° | 42% | 1015 mb | 2.367 ft | |||
| 08-May | 16:20 | VFR | 120° | 5 kt | 10000 meters | 18° | 64° | 6° | 42° | 45% | 1015 mb | 2.367 ft |
Giriş
| Tarayıcınız desteklenmiyor. tarayıcınızı yükseltin |
